sensor_id;sensor_type;location;lat;lon;timestamp;temperature;humidity
10010;DHT22;5044;48.652;9.250;2023-05-10T00:00:59;14.00;99.90
10010;DHT22;5044;48.652;9.250;2023-05-10T00:03:27;14.10;99.90
10010;DHT22;5044;48.652;9.250;2023-05-10T00:05:54;13.90;99.90
10010;DHT22;5044;48.652;9.250;2023-05-10T00:08:20;13.90;99.90
10010;DHT22;5044;48.652;9.250;2023-05-10T00:10:48;13.80;99.90
10010;DHT22;5044;48.652;9.250;2023-05-10T00:13:14;13.80;99.90
10010;DHT22;5044;48.652;9.250;2023-05-10T00:15:41;13.80;99.90
10010;DHT22;5044;48.652;9.250;2023-05-10T00:18:08;13.60;99.90
10010;DHT22;5044;48.652;9.250;2023-05-10T00:20:36;13.80;99.90
10010;DHT22;5044;48.652;9.250;2023-05-10T00:23:03;13.90;99.90
10010;DHT22;5044;48.652;9.250;2023-05-10T00:25:29;13.80;99.90
10010;DHT22;5044;48.652;9.250;2023-05-10T00:27:56;13.70;99.90
10010;DHT22;5044;48.652;9.250;2023-05-10T00:30:23;13.70;99.90
10010;DHT22;5044;48.652;9.250;2023-05-10T00:32:50;13.70;99.90
10010;DHT22;5044;48.652;9.250;2023-05-10T00:35:17;13.80;99.90
10010;DHT22;5044;48.652;9.250;2023-05-10T00:37:45;13.70;99.90
10010;DHT22;5044;48.652;9.250;2023-05-10T00:40:12;13.80;99.90
10010;DHT22;5044;48.652;9.250;2023-05-10T00:42:38;13.50;99.90
10010;DHT22;5044;48.652;9.250;2023-05-10T00:45:06;13.50;99.90
10010;DHT22;5044;48.652;9.250;2023-05-10T00:47:32;13.20;99.90
10010;DHT22;5044;48.652;9.250;2023-05-10T00:49:59;13.10;99.90
10010;DHT22;5044;48.652;9.250;2023-05-10T00:52:26;13.10;99.90
10010;DHT22;5044;48.652;9.250;2023-05-10T00:54:54;13.10;99.90
10010;DHT22;5044;48.652;9.250;2023-05-10T00:57:21;13.00;99.90
10010;DHT22;5044;48.652;9.250;2023-05-10T00:59:48;12.90;99.90
10010;DHT22;5044;48.652;9.250;2023-05-10T01:02:15;12.80;99.90
10010;DHT22;5044;48.652;9.250;2023-05-10T01:04:42;13.00;99.90
10010;DHT22;5044;48.652;9.250;2023-05-10T01:07:09;12.70;99.90
10010;DHT22;5044;48.652;9.250;2023-05-10T01:09:36;13.00;99.90
10010;DHT22;5044;48.652;9.250;2023-05-10T01:12:04;13.00;99.90
10010;DHT22;5044;48.652;9.250;2023-05-10T01:14:32;13.00;99.90
10010;DHT22;5044;48.652;9.250;2023-05-10T01:16:59;13.00;99.90
10010;DHT22;5044;48.652;9.250;2023-05-10T01:19:27;13.00;99.90
10010;DHT22;5044;48.652;9.250;2023-05-10T01:21:56;12.90;99.90
10010;DHT22;5044;48.652;9.250;2023-05-10T01:24:31;12.90;99.90
10010;DHT22;5044;48.652;9.250;2023-05-10T01:29:56;13.00;99.90
10010;DHT22;5044;48.652;9.250;2023-05-10T01:32:30;13.10;99.90
10010;DHT22;5044;48.652;9.250;2023-05-10T01:35:00;12.90;99.90
10010;DHT22;5044;48.652;9.250;2023-05-10T01:37:31;13.00;99.90
10010;DHT22;5044;48.652;9.250;2023-05-10T01:40:00;12.90;99.90
10010;DHT22;5044;48.652;9.250;2023-05-10T01:42:28;12.90;99.90
10010;DHT22;5044;48.652;9.250;2023-05-10T01:45:00;12.80;99.90
10010;DHT22;5044;48.652;9.250;2023-05-10T01:47:30;12.90;99.90
10010;DHT22;5044;48.652;9.250;2023-05-10T01:49:58;13.00;99.90
10010;DHT22;5044;48.652;9.250;2023-05-10T01:52:30;13.10;99.90
10010;DHT22;5044;48.652;9.250;2023-05-10T01:55:00;12.90;99.90
10010;DHT22;5044;48.652;9.250;2023-05-10T01:57:30;12.90;99.90
10010;DHT22;5044;48.652;9.250;2023-05-10T01:59:58;12.90;99.90
10010;DHT22;5044;48.652;9.250;2023-05-10T02:02:27;12.90;99.90
10010;DHT22;5044;48.652;9.250;2023-05-10T02:04:56;12.80;99.90
10010;DHT22;5044;48.652;9.250;2023-05-10T02:07:23;12.80;99.90
10010;DHT22;5044;48.652;9.250;2023-05-10T02:09:50;12.90;99.90
10010;DHT22;5044;48.652;9.250;2023-05-10T02:12:17;12.80;99.90
10010;DHT22;5044;48.652;9.250;2023-05-10T02:14:44;12.70;99.90
10010;DHT22;5044;48.652;9.250;2023-05-10T02:17:11;12.70;99.90
10010;DHT22;5044;48.652;9.250;2023-05-10T02:19:39;12.80;99.90
10010;DHT22;5044;48.652;9.250;2023-05-10T02:22:08;12.70;99.90
10010;DHT22;5044;48.652;9.250;2023-05-10T02:24:35;12.70;99.90
10010;DHT22;5044;48.652;9.250;2023-05-10T02:27:03;12.80;99.90
10010;DHT22;5044;48.652;9.250;2023-05-10T02:29:30;12.70;99.90
10010;DHT22;5044;48.652;9.250;2023-05-10T02:31:57;12.60;99.90
10010;DHT22;5044;48.652;9.250;2023-05-10T02:34:25;12.60;99.90
10010;DHT22;5044;48.652;9.250;2023-05-10T02:36:52;12.70;99.90
10010;DHT22;5044;48.652;9.250;2023-05-10T02:39:21;12.60;99.90
10010;DHT22;5044;48.652;9.250;2023-05-10T02:41:48;12.60;99.90
10010;DHT22;5044;48.652;9.250;2023-05-10T02:44:15;12.60;99.90
10010;DHT22;5044;48.652;9.250;2023-05-10T02:46:43;12.60;99.90
10010;DHT22;5044;48.652;9.250;2023-05-10T02:49:11;12.60;99.90
10010;DHT22;5044;48.652;9.250;2023-05-10T02:51:40;12.60;99.90
10010;DHT22;5044;48.652;9.250;2023-05-10T02:54:09;12.70;99.90
10010;DHT22;5044;48.652;9.250;2023-05-10T02:56:40;12.50;99.90
10010;DHT22;5044;48.652;9.250;2023-05-10T02:59:08;12.50;99.90
10010;DHT22;5044;48.652;9.250;2023-05-10T03:01:36;12.40;99.90
10010;DHT22;5044;48.652;9.250;2023-05-10T03:04:03;12.40;99.90
10010;DHT22;5044;48.652;9.250;2023-05-10T03:06:29;12.40;99.90
10010;DHT22;5044;48.652;9.250;2023-05-10T03:08:56;12.40;99.90
10010;DHT22;5044;48.652;9.250;2023-05-10T03:11:26;12.50;99.90
10010;DHT22;5044;48.652;9.250;2023-05-10T03:14:01;12.40;99.90
10010;DHT22;5044;48.652;9.250;2023-05-10T03:16:32;12.30;99.90
10010;DHT22;5044;48.652;9.250;2023-05-10T03:19:07;12.40;99.90
10010;DHT22;5044;48.652;9.250;2023-05-10T03:21:38;12.40;99.90
10010;DHT22;5044;48.652;9.250;2023-05-10T03:24:08;12.40;99.90
10010;DHT22;5044;48.652;9.250;2023-05-10T03:26:37;12.30;99.90
10010;DHT22;5044;48.652;9.250;2023-05-10T03:29:05;12.30;99.90
10010;DHT22;5044;48.652;9.250;2023-05-10T03:31:32;12.30;99.90
10010;DHT22;5044;48.652;9.250;2023-05-10T03:33:59;12.20;99.90
10010;DHT22;5044;48.652;9.250;2023-05-10T03:36:26;12.20;99.90
10010;DHT22;5044;48.652;9.250;2023-05-10T03:38:53;12.20;99.90
10010;DHT22;5044;48.652;9.250;2023-05-10T03:41:20;12.20;99.90
10010;DHT22;5044;48.652;9.250;2023-05-10T03:43:46;12.30;99.90
10010;DHT22;5044;48.652;9.250;2023-05-10T03:46:14;12.20;99.90
10010;DHT22;5044;48.652;9.250;2023-05-10T03:48:41;12.10;99.90
10010;DHT22;5044;48.652;9.250;2023-05-10T03:51:08;12.10;99.90
10010;DHT22;5044;48.652;9.250;2023-05-10T03:53:34;12.20;99.90
10010;DHT22;5044;48.652;9.250;2023-05-10T03:56:01;12.10;99.90
10010;DHT22;5044;48.652;9.250;2023-05-10T03:58:28;12.10;99.90
10010;DHT22;5044;48.652;9.250;2023-05-10T04:00:54;12.10;99.90
10010;DHT22;5044;48.652;9.250;2023-05-10T04:03:22;12.10;99.90
10010;DHT22;5044;48.652;9.250;2023-05-10T04:05:57;12.00;99.90
10010;DHT22;5044;48.652;9.250;2023-05-10T04:08:24;12.00;99.90
10010;DHT22;5044;48.652;9.250;2023-05-10T04:10:51;12.00;99.90
10010;DHT22;5044;48.652;9.250;2023-05-10T04:13:17;12.00;99.90
10010;DHT22;5044;48.652;9.250;2023-05-10T04:15:44;12.00;99.90
10010;DHT22;5044;48.652;9.250;2023-05-10T04:18:11;12.10;99.90
10010;DHT22;5044;48.652;9.250;2023-05-10T04:20:39;11.90;99.90
10010;DHT22;5044;48.652;9.250;2023-05-10T04:23:05;12.10;99.90
10010;DHT22;5044;48.652;9.250;2023-05-10T04:25:33;11.90;99.90
10010;DHT22;5044;48.652;9.250;2023-05-10T04:28:00;11.90;99.90
10010;DHT22;5044;48.652;9.250;2023-05-10T04:30:26;11.80;99.90
10010;DHT22;5044;48.652;9.250;2023-05-10T04:32:54;11.90;99.90
10010;DHT22;5044;48.652;9.250;2023-05-10T04:35:21;12.10;99.90
10010;DHT22;5044;48.652;9.250;2023-05-10T04:37:49;12.00;99.90
10010;DHT22;5044;48.652;9.250;2023-05-10T04:40:16;12.00;99.90
10010;DHT22;5044;48.652;9.250;2023-05-10T04:42:43;12.00;99.90
10010;DHT22;5044;48.652;9.250;2023-05-10T04:45:10;12.00;99.90
10010;DHT22;5044;48.652;9.250;2023-05-10T04:47:37;11.90;99.90
10010;DHT22;5044;48.652;9.250;2023-05-10T04:50:04;12.00;99.90
10010;DHT22;5044;48.652;9.250;2023-05-10T04:52:31;12.00;99.90
10010;DHT22;5044;48.652;9.250;2023-05-10T04:55:00;12.00;99.90
10010;DHT22;5044;48.652;9.250;2023-05-10T04:57:26;12.10;99.90
10010;DHT22;5044;48.652;9.250;2023-05-10T04:59:53;12.10;99.90
10010;DHT22;5044;48.652;9.250;2023-05-10T05:02:20;12.00;99.90
10010;DHT22;5044;48.652;9.250;2023-05-10T05:04:47;12.10;99.90
10010;DHT22;5044;48.652;9.250;2023-05-10T05:07:14;12.10;99.90
10010;DHT22;5044;48.652;9.250;2023-05-10T05:09:41;12.20;99.90
10010;DHT22;5044;48.652;9.250;2023-05-10T05:12:09;12.50;99.90
10010;DHT22;5044;48.652;9.250;2023-05-10T05:14:39;12.30;99.90
10010;DHT22;5044;48.652;9.250;2023-05-10T05:17:06;12.30;99.90
10010;DHT22;5044;48.652;9.250;2023-05-10T05:19:33;12.40;99.90
10010;DHT22;5044;48.652;9.250;2023-05-10T05:22:02;12.40;99.90
10010;DHT22;5044;48.652;9.250;2023-05-10T05:24:29;12.20;99.90
10010;DHT22;5044;48.652;9.250;2023-05-10T05:26:55;12.40;99.90
10010;DHT22;5044;48.652;9.250;2023-05-10T05:29:23;12.70;99.90
10010;DHT22;5044;48.652;9.250;2023-05-10T05:31:50;12.60;99.90
10010;DHT22;5044;48.652;9.250;2023-05-10T05:34:17;12.60;99.90
10010;DHT22;5044;48.652;9.250;2023-05-10T05:36:45;12.60;99.90
10010;DHT22;5044;48.652;9.250;2023-05-10T05:39:12;12.60;99.90
10010;DHT22;5044;48.652;9.250;2023-05-10T05:41:39;13.00;99.90
10010;DHT22;5044;48.652;9.250;2023-05-10T05:44:06;12.80;99.90
10010;DHT22;5044;48.652;9.250;2023-05-10T05:46:34;13.00;99.90
10010;DHT22;5044;48.652;9.250;2023-05-10T05:49:00;12.90;99.90
10010;DHT22;5044;48.652;9.250;2023-05-10T05:51:27;13.20;99.90
10010;DHT22;5044;48.652;9.250;2023-05-10T05:53:54;13.00;99.90
10010;DHT22;5044;48.652;9.250;2023-05-10T05:56:20;13.10;99.90
10010;DHT22;5044;48.652;9.250;2023-05-10T05:58:49;13.10;99.90
10010;DHT22;5044;48.652;9.250;2023-05-10T06:01:16;13.10;99.90
10010;DHT22;5044;48.652;9.250;2023-05-10T06:03:44;13.10;99.90
10010;DHT22;5044;48.652;9.250;2023-05-10T06:06:11;13.20;99.90
10010;DHT22;5044;48.652;9.250;2023-05-10T06:08:37;13.20;99.90
10010;DHT22;5044;48.652;9.250;2023-05-10T06:11:04;13.10;99.90
10010;DHT22;5044;48.652;9.250;2023-05-10T06:13:31;13.20;99.90
10010;DHT22;5044;48.652;9.250;2023-05-10T06:16:03;13.30;99.90
10010;DHT22;5044;48.652;9.250;2023-05-10T06:18:30;13.60;99.90
10010;DHT22;5044;48.652;9.250;2023-05-10T06:20:58;13.60;99.90
10010;DHT22;5044;48.652;9.250;2023-05-10T06:23:25;13.50;99.90
10010;DHT22;5044;48.652;9.250;2023-05-10T06:25:51;13.50;99.90
10010;DHT22;5044;48.652;9.250;2023-05-10T06:28:22;13.60;99.90
10010;DHT22;5044;48.652;9.250;2023-05-10T06:31:06;13.70;99.90
10010;DHT22;5044;48.652;9.250;2023-05-10T06:33:36;13.70;99.90
10010;DHT22;5044;48.652;9.250;2023-05-10T06:38:56;13.70;99.90
10010;DHT22;5044;48.652;9.250;2023-05-10T06:41:23;13.70;99.90
10010;DHT22;5044;48.652;9.250;2023-05-10T06:43:50;13.80;99.90
10010;DHT22;5044;48.652;9.250;2023-05-10T06:46:17;13.80;99.90
10010;DHT22;5044;48.652;9.250;2023-05-10T06:48:44;13.80;99.90
10010;DHT22;5044;48.652;9.250;2023-05-10T06:51:11;13.90;99.90
10010;DHT22;5044;48.652;9.250;2023-05-10T06:53:37;14.00;99.90
10010;DHT22;5044;48.652;9.250;2023-05-10T06:56:09;14.00;99.90
10010;DHT22;5044;48.652;9.250;2023-05-10T06:58:35;14.00;99.90
10010;DHT22;5044;48.652;9.250;2023-05-10T07:01:04;13.90;99.90
10010;DHT22;5044;48.652;9.250;2023-05-10T07:03:31;14.00;99.90
10010;DHT22;5044;48.652;9.250;2023-05-10T07:06:01;14.00;99.90
10010;DHT22;5044;48.652;9.250;2023-05-10T07:08:29;14.10;99.90
10010;DHT22;5044;48.652;9.250;2023-05-10T07:11:00;14.10;99.90
10010;DHT22;5044;48.652;9.250;2023-05-10T07:13:28;14.20;99.90
10010;DHT22;5044;48.652;9.250;2023-05-10T07:15:55;14.30;99.90
10010;DHT22;5044;48.652;9.250;2023-05-10T07:18:21;14.40;99.90
10010;DHT22;5044;48.652;9.250;2023-05-10T07:20:48;14.40;99.90
10010;DHT22;5044;48.652;9.250;2023-05-10T07:23:15;14.50;99.90
10010;DHT22;5044;48.652;9.250;2023-05-10T07:25:44;14.50;99.90
10010;DHT22;5044;48.652;9.250;2023-05-10T07:28:11;14.70;99.90
10010;DHT22;5044;48.652;9.250;2023-05-10T07:30:39;14.80;99.90
10010;DHT22;5044;48.652;9.250;2023-05-10T07:33:06;14.70;99.90
10010;DHT22;5044;48.652;9.250;2023-05-10T07:35:33;14.70;99.90
10010;DHT22;5044;48.652;9.250;2023-05-10T07:38:00;14.70;99.90
10010;DHT22;5044;48.652;9.250;2023-05-10T07:40:27;14.90;99.90
10010;DHT22;5044;48.652;9.250;2023-05-10T07:42:54;15.00;99.90
10010;DHT22;5044;48.652;9.250;2023-05-10T07:45:21;15.00;99.90
10010;DHT22;5044;48.652;9.250;2023-05-10T07:47:49;15.00;99.90
10010;DHT22;5044;48.652;9.250;2023-05-10T07:50:16;14.80;99.90
10010;DHT22;5044;48.652;9.250;2023-05-10T07:52:43;14.90;99.90
10010;DHT22;5044;48.652;9.250;2023-05-10T07:55:10;15.00;99.90
10010;DHT22;5044;48.652;9.250;2023-05-10T07:57:37;14.90;99.90
10010;DHT22;5044;48.652;9.250;2023-05-10T08:00:04;14.80;99.90
10010;DHT22;5044;48.652;9.250;2023-05-10T08:02:32;15.10;99.90
10010;DHT22;5044;48.652;9.250;2023-05-10T08:05:00;15.20;99.90
10010;DHT22;5044;48.652;9.250;2023-05-10T08:07:27;15.30;99.90
10010;DHT22;5044;48.652;9.250;2023-05-10T08:09:53;15.30;99.90
10010;DHT22;5044;48.652;9.250;2023-05-10T08:12:20;15.20;99.90
10010;DHT22;5044;48.652;9.250;2023-05-10T08:14:46;15.20;99.90
10010;DHT22;5044;48.652;9.250;2023-05-10T08:17:13;15.20;99.90
10010;DHT22;5044;48.652;9.250;2023-05-10T08:19:40;15.20;99.90
10010;DHT22;5044;48.652;9.250;2023-05-10T08:22:08;15.20;99.90
10010;DHT22;5044;48.652;9.250;2023-05-10T08:24:35;15.30;99.90
10010;DHT22;5044;48.652;9.250;2023-05-10T08:27:04;15.30;99.90
10010;DHT22;5044;48.652;9.250;2023-05-10T08:29:30;15.40;99.90
10010;DHT22;5044;48.652;9.250;2023-05-10T08:31:57;15.80;99.90
10010;DHT22;5044;48.652;9.250;2023-05-10T08:34:24;15.80;99.90
10010;DHT22;5044;48.652;9.250;2023-05-10T08:36:51;16.00;99.90
10010;DHT22;5044;48.652;9.250;2023-05-10T08:39:19;16.20;99.90
10010;DHT22;5044;48.652;9.250;2023-05-10T08:41:46;16.20;99.90
10010;DHT22;5044;48.652;9.250;2023-05-10T08:44:13;16.10;99.90
10010;DHT22;5044;48.652;9.250;2023-05-10T08:46:40;16.20;99.90
10010;DHT22;5044;48.652;9.250;2023-05-10T08:49:09;16.10;99.90
10010;DHT22;5044;48.652;9.250;2023-05-10T08:51:40;15.80;99.90
10010;DHT22;5044;48.652;9.250;2023-05-10T08:54:10;16.10;99.90
10010;DHT22;5044;48.652;9.250;2023-05-10T08:56:39;16.10;99.90
10010;DHT22;5044;48.652;9.250;2023-05-10T08:59:06;15.90;99.90
10010;DHT22;5044;48.652;9.250;2023-05-10T09:01:32;16.00;99.90
10010;DHT22;5044;48.652;9.250;2023-05-10T09:04:01;16.20;99.90
10010;DHT22;5044;48.652;9.250;2023-05-10T09:06:29;16.20;99.90
10010;DHT22;5044;48.652;9.250;2023-05-10T09:08:57;16.60;99.90
10010;DHT22;5044;48.652;9.250;2023-05-10T09:11:24;16.80;99.90
10010;DHT22;5044;48.652;9.250;2023-05-10T09:13:55;17.00;99.90
10010;DHT22;5044;48.652;9.250;2023-05-10T09:16:23;17.00;99.90
10010;DHT22;5044;48.652;9.250;2023-05-10T09:18:49;17.10;99.90
10010;DHT22;5044;48.652;9.250;2023-05-10T09:21:16;16.90;99.90
10010;DHT22;5044;48.652;9.250;2023-05-10T09:23:43;16.80;99.90
10010;DHT22;5044;48.652;9.250;2023-05-10T09:26:09;16.50;99.90
10010;DHT22;5044;48.652;9.250;2023-05-10T09:28:50;16.80;99.90
10010;DHT22;5044;48.652;9.250;2023-05-10T09:31:18;16.90;99.90
10010;DHT22;5044;48.652;9.250;2023-05-10T09:33:45;17.10;99.90
10010;DHT22;5044;48.652;9.250;2023-05-10T09:36:21;16.90;99.90
10010;DHT22;5044;48.652;9.250;2023-05-10T09:38:48;16.80;99.90
10010;DHT22;5044;48.652;9.250;2023-05-10T09:41:16;17.10;99.90
10010;DHT22;5044;48.652;9.250;2023-05-10T09:43:44;17.00;99.90
10010;DHT22;5044;48.652;9.250;2023-05-10T09:46:10;17.00;99.90
10010;DHT22;5044;48.652;9.250;2023-05-10T09:48:43;16.80;99.90
10010;DHT22;5044;48.652;9.250;2023-05-10T09:51:18;16.90;99.90
10010;DHT22;5044;48.652;9.250;2023-05-10T09:53:50;17.40;99.90
10010;DHT22;5044;48.652;9.250;2023-05-10T14:45:01;17.40;79.10
10010;DHT22;5044;48.652;9.250;2023-05-10T14:47:28;17.50;80.30
10010;DHT22;5044;48.652;9.250;2023-05-10T14:49:55;17.50;85.50
10010;DHT22;5044;48.652;9.250;2023-05-10T14:52:30;17.40;81.80
10010;DHT22;5044;48.652;9.250;2023-05-10T14:58:06;17.80;85.90
10010;DHT22;5044;48.652;9.250;2023-05-10T15:22:30;17.60;73.90
10010;DHT22;5044;48.652;9.250;2023-05-10T15:28:26;17.80;85.40
10010;DHT22;5044;48.652;9.250;2023-05-10T15:31:59;18.00;86.50
10010;DHT22;5044;48.652;9.250;2023-05-10T15:38:35;18.00;74.00
10010;DHT22;5044;48.652;9.250;2023-05-10T15:41:30;17.80;78.70
10010;DHT22;5044;48.652;9.250;2023-05-10T15:44:13;17.80;74.70
10010;DHT22;5044;48.652;9.250;2023-05-10T15:46:53;17.60;79.00
10010;DHT22;5044;48.652;9.250;2023-05-10T15:49:38;18.10;87.90
10010;DHT22;5044;48.652;9.250;2023-05-10T15:52:23;18.00;75.30
10010;DHT22;5044;48.652;9.250;2023-05-10T15:55:23;17.80;81.20
10010;DHT22;5044;48.652;9.250;2023-05-10T15:57:51;18.00;86.50
10010;DHT22;5044;48.652;9.250;2023-05-10T16:00:20;18.20;88.90
10010;DHT22;5044;48.652;9.250;2023-05-10T16:02:47;18.60;90.50
10010;DHT22;5044;48.652;9.250;2023-05-10T16:05:15;18.80;89.10
10010;DHT22;5044;48.652;9.250;2023-05-10T16:07:50;18.80;88.40
10010;DHT22;5044;48.652;9.250;2023-05-10T16:10:23;18.90;89.30
10010;DHT22;5044;48.652;9.250;2023-05-10T16:13:19;18.80;88.50
10010;DHT22;5044;48.652;9.250;2023-05-10T16:16:02;18.50;86.90
10010;DHT22;5044;48.652;9.250;2023-05-10T16:18:31;18.70;89.10
10010;DHT22;5044;48.652;9.250;2023-05-10T16:20:57;18.50;85.30
10010;DHT22;5044;48.652;9.250;2023-05-10T16:23:25;18.30;87.20
10010;DHT22;5044;48.652;9.250;2023-05-10T16:25:53;17.70;76.80
10010;DHT22;5044;48.652;9.250;2023-05-10T16:28:20;17.80;87.40
10010;DHT22;5044;48.652;9.250;2023-05-10T16:30:47;17.70;81.40
10010;DHT22;5044;48.652;9.250;2023-05-10T16:33:14;17.60;82.10
10010;DHT22;5044;48.652;9.250;2023-05-10T16:35:41;17.50;75.90
10010;DHT22;5044;48.652;9.250;2023-05-10T16:38:08;17.30;76.80
10010;DHT22;5044;48.652;9.250;2023-05-10T16:40:34;17.40;78.70
10010;DHT22;5044;48.652;9.250;2023-05-10T16:43:03;17.40;77.90
10010;DHT22;5044;48.652;9.250;2023-05-10T16:45:30;17.00;75.20
10010;DHT22;5044;48.652;9.250;2023-05-10T16:47:57;16.70;69.90
10010;DHT22;5044;48.652;9.250;2023-05-10T16:50:24;16.50;81.50
10010;DHT22;5044;48.652;9.250;2023-05-10T16:52:50;16.60;76.30
10010;DHT22;5044;48.652;9.250;2023-05-10T16:55:17;16.80;75.30
10010;DHT22;5044;48.652;9.250;2023-05-10T16:57:44;16.70;75.10
10010;DHT22;5044;48.652;9.250;2023-05-10T17:00:13;16.50;80.10
10010;DHT22;5044;48.652;9.250;2023-05-10T17:02:39;16.60;76.30
10010;DHT22;5044;48.652;9.250;2023-05-10T17:05:06;16.60;79.20
10010;DHT22;5044;48.652;9.250;2023-05-10T17:07:33;16.60;83.20
10010;DHT22;5044;48.652;9.250;2023-05-10T17:10:00;16.60;79.10
10010;DHT22;5044;48.652;9.250;2023-05-10T17:12:27;16.40;80.70
10010;DHT22;5044;48.652;9.250;2023-05-10T17:14:54;16.30;81.30
10010;DHT22;5044;48.652;9.250;2023-05-10T17:17:22;16.10;82.40
10010;DHT22;5044;48.652;9.250;2023-05-10T17:19:49;16.30;79.70
10010;DHT22;5044;48.652;9.250;2023-05-10T17:22:16;16.20;87.70
10010;DHT22;5044;48.652;9.250;2023-05-10T17:24:44;16.40;89.40
10010;DHT22;5044;48.652;9.250;2023-05-10T17:27:10;16.20;90.70
10010;DHT22;5044;48.652;9.250;2023-05-10T17:29:40;16.00;93.60
10010;DHT22;5044;48.652;9.250;2023-05-10T17:32:19;16.00;93.30
10010;DHT22;5044;48.652;9.250;2023-05-10T18:08:45;14.90;97.20
10010;DHT22;5044;48.652;9.250;2023-05-10T18:11:11;14.90;97.90
10010;DHT22;5044;48.652;9.250;2023-05-10T18:16:43;14.50;99.60
10010;DHT22;5044;48.652;9.250;2023-05-10T18:19:24;14.30;99.80
10010;DHT22;5044;48.652;9.250;2023-05-10T18:22:19;14.10;99.90
10010;DHT22;5044;48.652;9.250;2023-05-10T18:43:45;13.50;99.90
10010;DHT22;5044;48.652;9.250;2023-05-10T18:55:44;13.60;99.90
10010;DHT22;5044;48.652;9.250;2023-05-10T19:04:32;13.40;99.90
10010;DHT22;5044;48.652;9.250;2023-05-10T19:07:04;13.30;99.90
10010;DHT22;5044;48.652;9.250;2023-05-10T19:09:40;13.20;99.90
10010;DHT22;5044;48.652;9.250;2023-05-10T19:12:20;13.20;99.90
10010;DHT22;5044;48.652;9.250;2023-05-10T19:14:57;13.30;99.90
10010;DHT22;5044;48.652;9.250;2023-05-10T19:17:45;13.50;99.90
10010;DHT22;5044;48.652;9.250;2023-05-10T20:34:39;12.60;99.90
10010;DHT22;5044;48.652;9.250;2023-05-10T20:37:05;12.70;99.90
10010;DHT22;5044;48.652;9.250;2023-05-10T20:39:32;12.60;99.90
10010;DHT22;5044;48.652;9.250;2023-05-10T20:41:59;12.60;99.90
10010;DHT22;5044;48.652;9.250;2023-05-10T20:44:25;12.60;99.90
10010;DHT22;5044;48.652;9.250;2023-05-10T20:46:52;12.40;99.90
10010;DHT22;5044;48.652;9.250;2023-05-10T20:49:19;12.30;99.90
10010;DHT22;5044;48.652;9.250;2023-05-10T20:51:47;12.30;99.90
10010;DHT22;5044;48.652;9.250;2023-05-10T20:54:14;12.20;99.90
10010;DHT22;5044;48.652;9.250;2023-05-10T20:56:40;12.20;99.90
10010;DHT22;5044;48.652;9.250;2023-05-10T20:59:07;12.20;99.90
10010;DHT22;5044;48.652;9.250;2023-05-10T21:01:34;12.10;99.90
10010;DHT22;5044;48.652;9.250;2023-05-10T21:04:00;12.10;99.90
10010;DHT22;5044;48.652;9.250;2023-05-10T21:06:27;12.00;99.90
10010;DHT22;5044;48.652;9.250;2023-05-10T21:08:55;11.90;99.90
10010;DHT22;5044;48.652;9.250;2023-05-10T21:11:22;11.90;99.90
10010;DHT22;5044;48.652;9.250;2023-05-10T21:13:49;12.10;99.90
10010;DHT22;5044;48.652;9.250;2023-05-10T21:16:16;11.90;99.90
10010;DHT22;5044;48.652;9.250;2023-05-10T21:18:43;11.80;99.90
10010;DHT22;5044;48.652;9.250;2023-05-10T21:21:09;11.80;99.90
10010;DHT22;5044;48.652;9.250;2023-05-10T21:23:36;11.80;99.90
10010;DHT22;5044;48.652;9.250;2023-05-10T21:26:04;11.80;99.90
10010;DHT22;5044;48.652;9.250;2023-05-10T21:28:31;11.80;99.90
10010;DHT22;5044;48.652;9.250;2023-05-10T21:30:58;11.70;99.90
10010;DHT22;5044;48.652;9.250;2023-05-10T21:33:25;11.70;99.90
10010;DHT22;5044;48.652;9.250;2023-05-10T21:35:51;11.80;99.90
10010;DHT22;5044;48.652;9.250;2023-05-10T21:38:18;11.80;99.90
10010;DHT22;5044;48.652;9.250;2023-05-10T21:40:45;11.60;99.90
10010;DHT22;5044;48.652;9.250;2023-05-10T21:43:13;11.70;99.90
10010;DHT22;5044;48.652;9.250;2023-05-10T21:45:40;11.70;99.90
10010;DHT22;5044;48.652;9.250;2023-05-10T21:48:07;11.70;99.90
10010;DHT22;5044;48.652;9.250;2023-05-10T21:50:33;11.60;99.90
10010;DHT22;5044;48.652;9.250;2023-05-10T21:53:01;11.70;99.90
10010;DHT22;5044;48.652;9.250;2023-05-10T21:55:28;11.60;99.90
10010;DHT22;5044;48.652;9.250;2023-05-10T21:57:54;11.60;99.90
10010;DHT22;5044;48.652;9.250;2023-05-10T22:00:23;11.70;99.90
10010;DHT22;5044;48.652;9.250;2023-05-10T22:02:50;11.60;99.90
10010;DHT22;5044;48.652;9.250;2023-05-10T22:05:17;11.60;99.90
10010;DHT22;5044;48.652;9.250;2023-05-10T22:07:44;11.50;99.90
10010;DHT22;5044;48.652;9.250;2023-05-10T22:10:11;11.50;99.90
10010;DHT22;5044;48.652;9.250;2023-05-10T22:12:37;11.50;99.90
10010;DHT22;5044;48.652;9.250;2023-05-10T22:15:04;11.60;99.90
10010;DHT22;5044;48.652;9.250;2023-05-10T22:17:32;11.60;99.90
10010;DHT22;5044;48.652;9.250;2023-05-10T22:19:59;11.60;99.90
10010;DHT22;5044;48.652;9.250;2023-05-10T22:22:26;11.70;99.90
10010;DHT22;5044;48.652;9.250;2023-05-10T22:24:53;11.60;99.90
10010;DHT22;5044;48.652;9.250;2023-05-10T22:27:19;11.40;99.90
10010;DHT22;5044;48.652;9.250;2023-05-10T22:29:46;11.50;99.90
10010;DHT22;5044;48.652;9.250;2023-05-10T22:32:13;11.30;99.90
10010;DHT22;5044;48.652;9.250;2023-05-10T22:34:41;11.40;99.90
10010;DHT22;5044;48.652;9.250;2023-05-10T22:37:10;11.40;99.90
10010;DHT22;5044;48.652;9.250;2023-05-10T22:39:39;11.40;99.90
10010;DHT22;5044;48.652;9.250;2023-05-10T22:42:05;11.40;99.90
10010;DHT22;5044;48.652;9.250;2023-05-10T22:44:32;11.40;99.90
10010;DHT22;5044;48.652;9.250;2023-05-10T22:46:59;11.40;99.90
10010;DHT22;5044;48.652;9.250;2023-05-10T22:49:25;11.40;99.90
10010;DHT22;5044;48.652;9.250;2023-05-10T22:51:53;11.40;99.90
10010;DHT22;5044;48.652;9.250;2023-05-10T22:54:20;11.40;99.90
10010;DHT22;5044;48.652;9.250;2023-05-10T22:56:47;11.40;99.90
10010;DHT22;5044;48.652;9.250;2023-05-10T22:59:13;11.50;99.90
10010;DHT22;5044;48.652;9.250;2023-05-10T23:01:40;11.30;99.90
10010;DHT22;5044;48.652;9.250;2023-05-10T23:04:07;11.30;99.90
10010;DHT22;5044;48.652;9.250;2023-05-10T23:06:34;11.40;99.90
10010;DHT22;5044;48.652;9.250;2023-05-10T23:09:02;11.30;99.90
10010;DHT22;5044;48.652;9.250;2023-05-10T23:11:29;11.40;99.90
10010;DHT22;5044;48.652;9.250;2023-05-10T23:13:55;11.40;99.90
10010;DHT22;5044;48.652;9.250;2023-05-10T23:16:23;11.30;99.90
10010;DHT22;5044;48.652;9.250;2023-05-10T23:18:49;11.40;99.90
10010;DHT22;5044;48.652;9.250;2023-05-10T23:21:16;11.30;99.90
10010;DHT22;5044;48.652;9.250;2023-05-10T23:23:43;11.40;99.90
10010;DHT22;5044;48.652;9.250;2023-05-10T23:26:11;11.30;99.90
10010;DHT22;5044;48.652;9.250;2023-05-10T23:28:37;11.30;99.90
10010;DHT22;5044;48.652;9.250;2023-05-10T23:31:04;11.30;99.90
10010;DHT22;5044;48.652;9.250;2023-05-10T23:33:31;11.30;99.90
10010;DHT22;5044;48.652;9.250;2023-05-10T23:35:58;11.30;99.90
10010;DHT22;5044;48.652;9.250;2023-05-10T23:38:24;11.20;99.90
10010;DHT22;5044;48.652;9.250;2023-05-10T23:40:51;11.20;99.90
10010;DHT22;5044;48.652;9.250;2023-05-10T23:43:20;11.10;99.90
10010;DHT22;5044;48.652;9.250;2023-05-10T23:45:53;11.30;99.90